sensor_id;sensor_type;location;lat;lon;timestamp;noise_LAeq;noise_LA_min;noise_LA_max;noise_LA01;noise_LA95
69619;Laerm;57653;51.434;5.984;2023-04-03T00:00:01;32.83;31.79;33.70;;
69619;Laerm;57653;51.434;5.984;2023-04-03T00:00:11;33.30;32.01;38.97;;
69619;Laerm;57653;51.434;5.984;2023-04-03T00:00:22;32.87;31.82;34.04;;
69619;Laerm;57653;51.434;5.984;2023-04-03T00:00:32;33.34;32.04;37.69;;
69619;Laerm;57653;51.434;5.984;2023-04-03T00:00:42;32.82;31.48;33.77;;
69619;Laerm;57653;51.434;5.984;2023-04-03T00:00:53;32.96;31.63;35.40;;
69619;Laerm;57653;51.434;5.984;2023-04-03T00:01:03;33.12;31.99;34.49;;
69619;Laerm;57653;51.434;5.984;2023-04-03T00:01:14;33.09;32.10;34.25;;
69619;Laerm;57653;51.434;5.984;2023-04-03T00:01:24;33.02;31.96;34.50;;
69619;Laerm;57653;51.434;5.984;2023-04-03T00:01:35;33.58;32.06;35.87;;
69619;Laerm;57653;51.434;5.984;2023-04-03T00:01:45;37.39;33.53;43.37;;
69619;Laerm;57653;51.434;5.984;2023-04-03T00:01:55;55.62;41.91;63.14;;
69619;Laerm;57653;51.434;5.984;2023-04-03T00:02:06;64.66;61.39;67.22;;
69619;Laerm;57653;51.434;5.984;2023-04-03T00:02:16;63.80;60.02;66.26;;
69619;Laerm;57653;51.434;5.984;2023-04-03T00:02:26;55.12;43.84;63.44;;
69619;Laerm;57653;51.434;5.984;2023-04-03T00:02:36;41.79;36.85;46.43;;
69619;Laerm;57653;51.434;5.984;2023-04-03T00:02:47;35.78;33.13;38.69;;
69619;Laerm;57653;51.434;5.984;2023-04-03T00:02:57;34.35;33.01;35.61;;
69619;Laerm;57653;51.434;5.984;2023-04-03T00:03:07;34.22;32.90;35.60;;
69619;Laerm;57653;51.434;5.984;2023-04-03T00:03:18;34.60;33.38;36.47;;
69619;Laerm;57653;51.434;5.984;2023-04-03T00:03:29;33.98;32.64;35.73;;
69619;Laerm;57653;51.434;5.984;2023-04-03T00:03:39;33.29;32.40;34.37;;
69619;Laerm;57653;51.434;5.984;2023-04-03T00:03:51;33.16;31.77;34.09;;
69619;Laerm;57653;51.434;5.984;2023-04-03T00:04:02;33.02;31.89;34.05;;
69619;Laerm;57653;51.434;5.984;2023-04-03T00:04:12;32.92;31.90;34.02;;
69619;Laerm;57653;51.434;5.984;2023-04-03T00:04:22;32.89;31.98;33.81;;
69619;Laerm;57653;51.434;5.984;2023-04-03T00:04:32;32.93;31.81;34.57;;
69619;Laerm;57653;51.434;5.984;2023-04-03T00:04:43;32.85;31.98;34.03;;
69619;Laerm;57653;51.434;5.984;2023-04-03T00:04:53;32.86;31.83;35.99;;
69619;Laerm;57653;51.434;5.984;2023-04-03T00:05:03;32.89;31.96;33.88;;
69619;Laerm;57653;51.434;5.984;2023-04-03T00:05:14;32.84;31.92;33.77;;
69619;Laerm;57653;51.434;5.984;2023-04-03T00:05:25;32.79;31.92;34.31;;
69619;Laerm;57653;51.434;5.984;2023-04-03T00:05:35;32.86;31.84;34.84;;
69619;Laerm;57653;51.434;5.984;2023-04-03T00:05:45;32.87;31.81;34.45;;
69619;Laerm;57653;51.434;5.984;2023-04-03T00:05:56;32.81;31.67;34.13;;
69619;Laerm;57653;51.434;5.984;2023-04-03T00:06:06;32.81;31.93;33.96;;
69619;Laerm;57653;51.434;5.984;2023-04-03T00:06:18;32.81;31.70;33.83;;
69619;Laerm;57653;51.434;5.984;2023-04-03T00:06:29;32.84;31.88;33.79;;
69619;Laerm;57653;51.434;5.984;2023-04-03T00:06:39;32.84;31.52;34.10;;
69619;Laerm;57653;51.434;5.984;2023-04-03T00:06:50;32.86;31.85;33.89;;
69619;Laerm;57653;51.434;5.984;2023-04-03T00:07:00;32.85;31.60;33.70;;
69619;Laerm;57653;51.434;5.984;2023-04-03T00:07:10;32.83;31.73;34.04;;
69619;Laerm;57653;51.434;5.984;2023-04-03T00:07:22;32.80;31.61;33.58;;
69619;Laerm;57653;51.434;5.984;2023-04-03T00:07:32;32.81;31.76;33.63;;
69619;Laerm;57653;51.434;5.984;2023-04-03T00:07:43;32.83;31.74;33.75;;
69619;Laerm;57653;51.434;5.984;2023-04-03T00:07:53;32.83;31.67;33.87;;
69619;Laerm;57653;51.434;5.984;2023-04-03T00:08:03;32.84;31.85;33.74;;
69619;Laerm;57653;51.434;5.984;2023-04-03T00:08:14;32.82;31.81;33.82;;
69619;Laerm;57653;51.434;5.984;2023-04-03T00:08:25;32.85;31.51;34.06;;
69619;Laerm;57653;51.434;5.984;2023-04-03T00:08:35;32.83;31.80;33.69;;
69619;Laerm;57653;51.434;5.984;2023-04-03T00:08:46;32.96;31.63;37.04;;
69619;Laerm;57653;51.434;5.984;2023-04-03T00:08:56;32.87;32.03;34.31;;
69619;Laerm;57653;51.434;5.984;2023-04-03T00:09:06;32.83;31.72;33.65;;
69619;Laerm;57653;51.434;5.984;2023-04-03T00:09:16;32.81;31.85;33.80;;
69619;Laerm;57653;51.434;5.984;2023-04-03T00:09:27;32.82;31.72;33.76;;
69619;Laerm;57653;51.434;5.984;2023-04-03T00:09:37;32.82;32.14;33.52;;
69619;Laerm;57653;51.434;5.984;2023-04-03T00:09:47;32.82;31.53;33.62;;
69619;Laerm;57653;51.434;5.984;2023-04-03T00:09:57;32.81;31.80;33.68;;
69619;Laerm;57653;51.434;5.984;2023-04-03T00:10:08;32.78;31.63;33.79;;
69619;Laerm;57653;51.434;5.984;2023-04-03T00:10:18;32.84;31.67;33.73;;
69619;Laerm;57653;51.434;5.984;2023-04-03T00:10:28;32.85;31.70;34.03;;
69619;Laerm;57653;51.434;5.984;2023-04-03T00:10:39;32.81;31.47;33.83;;
69619;Laerm;57653;51.434;5.984;2023-04-03T00:10:49;32.81;31.56;33.57;;
69619;Laerm;57653;51.434;5.984;2023-04-03T00:10:59;32.84;31.78;33.72;;
69619;Laerm;57653;51.434;5.984;2023-04-03T00:11:10;32.84;31.70;33.90;;
69619;Laerm;57653;51.434;5.984;2023-04-03T00:11:20;32.86;31.68;33.81;;
69619;Laerm;57653;51.434;5.984;2023-04-03T00:11:31;32.84;31.85;34.08;;
69619;Laerm;57653;51.434;5.984;2023-04-03T00:11:42;32.85;31.91;33.91;;
69619;Laerm;57653;51.434;5.984;2023-04-03T00:11:52;32.83;31.47;33.84;;
69619;Laerm;57653;51.434;5.984;2023-04-03T00:12:02;32.82;31.85;33.66;;
69619;Laerm;57653;51.434;5.984;2023-04-03T00:12:12;32.78;31.83;33.61;;
69619;Laerm;57653;51.434;5.984;2023-04-03T00:12:23;32.82;31.83;33.66;;
69619;Laerm;57653;51.434;5.984;2023-04-03T00:12:33;32.81;31.79;33.67;;
69619;Laerm;57653;51.434;5.984;2023-04-03T00:12:43;32.79;31.60;34.04;;
69619;Laerm;57653;51.434;5.984;2023-04-03T00:12:53;32.82;31.80;33.65;;
69619;Laerm;57653;51.434;5.984;2023-04-03T00:13:04;32.82;31.57;33.90;;
69619;Laerm;57653;51.434;5.984;2023-04-03T00:13:15;32.81;31.32;33.70;;
69619;Laerm;57653;51.434;5.984;2023-04-03T00:13:25;32.94;32.03;35.61;;
69619;Laerm;57653;51.434;5.984;2023-04-03T00:13:36;33.15;31.66;36.80;;
69619;Laerm;57653;51.434;5.984;2023-04-03T00:13:46;33.47;31.77;37.36;;
69619;Laerm;57653;51.434;5.984;2023-04-03T00:13:57;33.75;31.88;42.20;;
69619;Laerm;57653;51.434;5.984;2023-04-03T00:14:07;33.58;31.73;41.53;;
69619;Laerm;57653;51.434;5.984;2023-04-03T00:14:17;33.38;31.78;37.80;;
69619;Laerm;57653;51.434;5.984;2023-04-03T00:14:28;32.82;31.76;35.12;;
69619;Laerm;57653;51.434;5.984;2023-04-03T00:14:38;32.83;31.80;33.94;;
69619;Laerm;57653;51.434;5.984;2023-04-03T00:14:48;32.82;31.88;33.72;;
69619;Laerm;57653;51.434;5.984;2023-04-03T00:14:58;32.86;31.62;33.97;;
69619;Laerm;57653;51.434;5.984;2023-04-03T00:15:09;32.82;31.82;33.92;;
69619;Laerm;57653;51.434;5.984;2023-04-03T00:15:19;32.82;31.98;33.84;;
69619;Laerm;57653;51.434;5.984;2023-04-03T00:15:30;32.86;31.81;34.50;;
69619;Laerm;57653;51.434;5.984;2023-04-03T00:15:40;32.82;31.89;33.62;;
69619;Laerm;57653;51.434;5.984;2023-04-03T00:15:51;32.85;31.75;33.79;;
69619;Laerm;57653;51.434;5.984;2023-04-03T00:16:01;32.84;31.38;33.82;;
69619;Laerm;57653;51.434;5.984;2023-04-03T00:16:13;32.80;31.64;33.69;;
69619;Laerm;57653;51.434;5.984;2023-04-03T00:16:23;32.78;31.81;33.72;;
69619;Laerm;57653;51.434;5.984;2023-04-03T00:16:33;32.78;31.87;33.67;;
69619;Laerm;57653;51.434;5.984;2023-04-03T00:16:44;32.76;31.66;34.10;;
69619;Laerm;57653;51.434;5.984;2023-04-03T00:16:54;32.78;31.75;33.89;;
69619;Laerm;57653;51.434;5.984;2023-04-03T00:17:05;32.80;31.85;33.90;;
69619;Laerm;57653;51.434;5.984;2023-04-03T00:17:15;32.79;31.71;33.64;;
69619;Laerm;57653;51.434;5.984;2023-04-03T00:17:25;32.75;31.64;33.66;;
69619;Laerm;57653;51.434;5.984;2023-04-03T00:17:36;32.77;31.90;33.70;;
69619;Laerm;57653;51.434;5.984;2023-04-03T00:17:46;32.77;31.80;33.74;;
69619;Laerm;57653;51.434;5.984;2023-04-03T00:17:56;32.81;31.76;33.94;;
69619;Laerm;57653;51.434;5.984;2023-04-03T00:18:07;32.82;31.73;33.88;;
69619;Laerm;57653;51.434;5.984;2023-04-03T00:18:17;32.81;31.74;33.73;;
69619;Laerm;57653;51.434;5.984;2023-04-03T00:18:28;32.95;32.00;33.75;;
69619;Laerm;57653;51.434;5.984;2023-04-03T00:18:38;32.99;31.95;33.87;;
69619;Laerm;57653;51.434;5.984;2023-04-03T00:18:49;33.10;31.94;34.34;;
69619;Laerm;57653;51.434;5.984;2023-04-03T00:18:59;32.94;31.93;33.84;;
69619;Laerm;57653;51.434;5.984;2023-04-03T00:19:10;32.93;31.92;33.83;;
69619;Laerm;57653;51.434;5.984;2023-04-03T00:19:21;32.85;31.75;33.92;;
69619;Laerm;57653;51.434;5.984;2023-04-03T00:19:32;32.85;31.66;34.06;;
69619;Laerm;57653;51.434;5.984;2023-04-03T00:19:42;32.78;31.87;33.79;;
69619;Laerm;57653;51.434;5.984;2023-04-03T00:19:52;32.81;31.60;33.75;;
69619;Laerm;57653;51.434;5.984;2023-04-03T00:20:03;32.83;31.75;34.39;;
69619;Laerm;57653;51.434;5.984;2023-04-03T00:20:14;32.85;31.83;34.00;;
69619;Laerm;57653;51.434;5.984;2023-04-03T00:20:24;32.90;31.80;33.94;;
69619;Laerm;57653;51.434;5.984;2023-04-03T00:20:34;33.01;31.91;34.27;;
69619;Laerm;57653;51.434;5.984;2023-04-03T00:20:45;33.19;31.99;35.87;;
69619;Laerm;57653;51.434;5.984;2023-04-03T00:20:55;33.19;32.13;34.53;;
69619;Laerm;57653;51.434;5.984;2023-04-03T00:21:05;33.77;32.72;34.93;;
69619;Laerm;57653;51.434;5.984;2023-04-03T00:21:16;35.58;33.13;39.65;;
69619;Laerm;57653;51.434;5.984;2023-04-03T00:21:26;47.52;37.57;55.98;;
69619;Laerm;57653;51.434;5.984;2023-04-03T00:21:37;63.17;52.21;67.71;;
69619;Laerm;57653;51.434;5.984;2023-04-03T00:21:47;67.39;64.76;69.29;;
69619;Laerm;57653;51.434;5.984;2023-04-03T00:21:57;65.45;58.39;69.03;;
69619;Laerm;57653;51.434;5.984;2023-04-03T00:22:08;53.08;43.43;59.77;;
69619;Laerm;57653;51.434;5.984;2023-04-03T00:22:18;41.98;37.74;46.23;;
69619;Laerm;57653;51.434;5.984;2023-04-03T00:22:28;36.18;32.51;40.88;;
69619;Laerm;57653;51.434;5.984;2023-04-03T00:22:38;33.21;31.83;35.21;;
69619;Laerm;57653;51.434;5.984;2023-04-03T00:22:49;32.93;31.76;36.70;;
69619;Laerm;57653;51.434;5.984;2023-04-03T00:22:59;32.76;31.70;33.73;;
69619;Laerm;57653;51.434;5.984;2023-04-03T00:23:10;32.75;31.56;33.77;;
69619;Laerm;57653;51.434;5.984;2023-04-03T00:23:20;32.72;31.90;33.80;;
69619;Laerm;57653;51.434;5.984;2023-04-03T00:23:30;32.75;31.69;33.79;;
69619;Laerm;57653;51.434;5.984;2023-04-03T00:23:41;32.72;31.52;33.67;;
69619;Laerm;57653;51.434;5.984;2023-04-03T00:23:51;32.72;31.55;34.25;;
69619;Laerm;57653;51.434;5.984;2023-04-03T00:24:02;32.75;31.77;33.70;;
69619;Laerm;57653;51.434;5.984;2023-04-03T00:24:12;32.76;31.58;33.69;;
69619;Laerm;57653;51.434;5.984;2023-04-03T00:24:22;32.79;31.70;33.98;;
69619;Laerm;57653;51.434;5.984;2023-04-03T00:24:33;32.81;31.82;33.68;;
69619;Laerm;57653;51.434;5.984;2023-04-03T00:24:43;32.73;31.70;33.82;;
69619;Laerm;57653;51.434;5.984;2023-04-03T00:24:54;32.79;31.44;33.91;;
69619;Laerm;57653;51.434;5.984;2023-04-03T00:25:04;32.76;31.54;33.77;;
69619;Laerm;57653;51.434;5.984;2023-04-03T00:25:15;33.73;31.61;46.63;;
69619;Laerm;57653;51.434;5.984;2023-04-03T00:25:25;32.77;31.61;33.67;;
69619;Laerm;57653;51.434;5.984;2023-04-03T00:25:35;32.73;31.52;33.75;;
69619;Laerm;57653;51.434;5.984;2023-04-03T00:25:46;32.79;31.61;33.77;;
69619;Laerm;57653;51.434;5.984;2023-04-03T00:25:56;32.80;31.61;33.69;;
69619;Laerm;57653;51.434;5.984;2023-04-03T00:26:06;32.77;31.69;33.72;;
69619;Laerm;57653;51.434;5.984;2023-04-03T00:26:17;32.78;31.86;33.73;;
69619;Laerm;57653;51.434;5.984;2023-04-03T00:26:27;32.80;31.64;33.84;;
69619;Laerm;57653;51.434;5.984;2023-04-03T00:26:37;32.81;31.70;33.69;;
69619;Laerm;57653;51.434;5.984;2023-04-03T00:26:47;32.76;31.71;33.92;;
69619;Laerm;57653;51.434;5.984;2023-04-03T00:26:58;32.77;31.78;34.02;;
69619;Laerm;57653;51.434;5.984;2023-04-03T00:27:08;32.77;31.69;33.80;;
69619;Laerm;57653;51.434;5.984;2023-04-03T00:27:18;32.77;31.85;33.65;;
69619;Laerm;57653;51.434;5.984;2023-04-03T00:27:28;32.84;31.85;33.70;;
69619;Laerm;57653;51.434;5.984;2023-04-03T00:27:39;32.82;31.76;33.63;;
69619;Laerm;57653;51.434;5.984;2023-04-03T00:27:50;32.82;31.99;33.64;;
69619;Laerm;57653;51.434;5.984;2023-04-03T00:28:00;32.90;31.56;33.87;;
69619;Laerm;57653;51.434;5.984;2023-04-03T00:28:10;32.87;31.97;33.63;;
69619;Laerm;57653;51.434;5.984;2023-04-03T00:28:21;32.85;31.86;33.88;;
69619;Laerm;57653;51.434;5.984;2023-04-03T00:28:31;32.80;31.96;33.69;;
69619;Laerm;57653;51.434;5.984;2023-04-03T00:28:41;32.76;31.83;33.61;;
69619;Laerm;57653;51.434;5.984;2023-04-03T00:28:52;32.78;31.56;33.69;;
69619;Laerm;57653;51.434;5.984;2023-04-03T00:29:02;35.43;31.82;50.67;;
69619;Laerm;57653;51.434;5.984;2023-04-03T00:29:12;32.85;31.72;33.63;;
69619;Laerm;57653;51.434;5.984;2023-04-03T00:29:23;32.96;31.84;34.06;;
69619;Laerm;57653;51.434;5.984;2023-04-03T00:29:33;33.44;32.18;38.76;;
69619;Laerm;57653;51.434;5.984;2023-04-03T00:29:43;34.47;32.39;43.69;;
69619;Laerm;57653;51.434;5.984;2023-04-03T00:29:53;34.32;33.03;35.61;;
69619;Laerm;57653;51.434;5.984;2023-04-03T00:30:04;36.11;33.69;38.83;;
69619;Laerm;57653;51.434;5.984;2023-04-03T00:30:15;47.25;37.71;53.66;;
69619;Laerm;57653;51.434;5.984;2023-04-03T00:30:26;65.07;51.37;71.03;;
69619;Laerm;57653;51.434;5.984;2023-04-03T00:30:36;68.67;66.43;70.73;;
69619;Laerm;57653;51.434;5.984;2023-04-03T00:30:48;67.45;61.16;70.93;;
69619;Laerm;57653;51.434;5.984;2023-04-03T00:30:58;55.70;44.59;62.24;;
69619;Laerm;57653;51.434;5.984;2023-04-03T00:31:08;43.31;38.60;47.04;;
69619;Laerm;57653;51.434;5.984;2023-04-03T00:31:19;36.40;33.09;43.11;;
69619;Laerm;57653;51.434;5.984;2023-04-03T00:31:29;33.21;31.77;34.63;;
69619;Laerm;57653;51.434;5.984;2023-04-03T00:31:40;32.93;31.74;34.06;;
69619;Laerm;57653;51.434;5.984;2023-04-03T00:31:50;32.92;31.68;33.96;;
69619;Laerm;57653;51.434;5.984;2023-04-03T00:32:00;32.89;31.79;33.80;;
69619;Laerm;57653;51.434;5.984;2023-04-03T00:32:10;32.91;31.87;34.28;;
69619;Laerm;57653;51.434;5.984;2023-04-03T00:32:21;33.07;31.92;35.10;;
69619;Laerm;57653;51.434;5.984;2023-04-03T00:32:31;32.92;31.87;33.99;;
69619;Laerm;57653;51.434;5.984;2023-04-03T00:32:41;32.79;31.57;33.73;;
69619;Laerm;57653;51.434;5.984;2023-04-03T00:32:52;32.85;31.83;33.88;;
69619;Laerm;57653;51.434;5.984;2023-04-03T00:33:02;32.83;31.96;33.78;;
69619;Laerm;57653;51.434;5.984;2023-04-03T00:33:13;32.88;32.07;34.13;;
69619;Laerm;57653;51.434;5.984;2023-04-03T00:33:23;32.79;31.74;35.03;;
69619;Laerm;57653;51.434;5.984;2023-04-03T00:33:34;32.78;31.77;33.65;;
69619;Laerm;57653;51.434;5.984;2023-04-03T00:33:44;32.77;31.77;33.74;;
69619;Laerm;57653;51.434;5.984;2023-04-03T00:33:58;32.77;31.83;33.72;;
69619;Laerm;57653;51.434;5.984;2023-04-03T00:34:08;32.77;31.81;33.70;;
69619;Laerm;57653;51.434;5.984;2023-04-03T00:34:18;32.78;31.83;34.37;;
69619;Laerm;57653;51.434;5.984;2023-04-03T00:34:29;32.77;31.93;33.78;;
69619;Laerm;57653;51.434;5.984;2023-04-03T00:34:40;32.79;31.98;33.71;;
69619;Laerm;57653;51.434;5.984;2023-04-03T00:34:50;32.78;31.89;33.64;;
69619;Laerm;57653;51.434;5.984;2023-04-03T00:35:00;32.83;31.67;33.92;;
69619;Laerm;57653;51.434;5.984;2023-04-03T00:35:10;32.79;31.60;33.68;;
69619;Laerm;57653;51.434;5.984;2023-04-03T00:35:21;32.86;31.76;33.87;;
69619;Laerm;57653;51.434;5.984;2023-04-03T00:35:32;32.79;31.83;33.72;;
69619;Laerm;57653;51.434;5.984;2023-04-03T00:35:44;32.78;31.93;33.75;;
69619;Laerm;57653;51.434;5.984;2023-04-03T00:35:54;32.78;31.83;33.80;;
69619;Laerm;57653;51.434;5.984;2023-04-03T00:36:06;32.81;31.86;34.48;;
69619;Laerm;57653;51.434;5.984;2023-04-03T00:36:16;32.80;31.69;34.05;;
69619;Laerm;57653;51.434;5.984;2023-04-03T00:36:26;32.78;31.82;33.70;;
69619;Laerm;57653;51.434;5.984;2023-04-03T00:36:37;32.78;31.79;33.67;;
69619;Laerm;57653;51.434;5.984;2023-04-03T00:36:47;32.80;31.52;33.99;;
69619;Laerm;57653;51.434;5.984;2023-04-03T00:36:57;32.82;31.78;33.99;;
69619;Laerm;57653;51.434;5.984;2023-04-03T00:37:07;32.76;31.76;33.81;;
69619;Laerm;57653;51.434;5.984;2023-04-03T00:37:18;32.78;31.58;33.64;;
69619;Laerm;57653;51.434;5.984;2023-04-03T00:37:28;32.83;32.02;34.81;;
69619;Laerm;57653;51.434;5.984;2023-04-03T00:37:38;32.79;31.76;33.78;;
69619;Laerm;57653;51.434;5.984;2023-04-03T00:37:52;32.85;31.73;35.53;;
69619;Laerm;57653;51.434;5.984;2023-04-03T00:38:03;32.87;31.83;33.92;;
69619;Laerm;57653;51.434;5.984;2023-04-03T00:38:13;32.86;31.53;33.62;;
69619;Laerm;57653;51.434;5.984;2023-04-03T00:38:24;32.81;31.82;33.84;;
69619;Laerm;57653;51.434;5.984;2023-04-03T00:38:35;32.82;31.65;33.75;;
69619;Laerm;57653;51.434;5.984;2023-04-03T00:38:45;32.83;31.83;33.86;;
69619;Laerm;57653;51.434;5.984;2023-04-03T00:38:55;32.76;31.58;33.79;;
69619;Laerm;57653;51.434;5.984;2023-04-03T00:39:06;32.77;31.85;33.63;;
69619;Laerm;57653;51.434;5.984;2023-04-03T00:39:16;32.79;31.68;33.91;;
69619;Laerm;57653;51.434;5.984;2023-04-03T00:39:26;32.79;31.59;33.78;;
69619;Laerm;57653;51.434;5.984;2023-04-03T00:39:36;32.80;31.84;33.72;;
69619;Laerm;57653;51.434;5.984;2023-04-03T00:39:47;32.78;31.77;33.88;;
69619;Laerm;57653;51.434;5.984;2023-04-03T00:39:57;32.79;31.53;33.83;;
69619;Laerm;57653;51.434;5.984;2023-04-03T00:40:07;32.77;31.63;34.20;;
69619;Laerm;57653;51.434;5.984;2023-04-03T00:40:18;32.76;31.63;33.65;;
69619;Laerm;57653;51.434;5.984;2023-04-03T00:40:32;32.79;31.86;33.92;;
69619;Laerm;57653;51.434;5.984;2023-04-03T00:40:43;32.80;31.64;33.85;;
69619;Laerm;57653;51.434;5.984;2023-04-03T00:40:54;32.81;31.78;33.66;;
69619;Laerm;57653;51.434;5.984;2023-04-03T00:41:05;32.79;31.89;33.61;;
69619;Laerm;57653;51.434;5.984;2023-04-03T00:41:15;32.83;31.93;33.81;;
69619;Laerm;57653;51.434;5.984;2023-04-03T00:41:25;32.88;31.98;33.96;;
69619;Laerm;57653;51.434;5.984;2023-04-03T00:41:36;32.80;31.80;33.88;;
69619;Laerm;57653;51.434;5.984;2023-04-03T00:41:46;32.81;31.58;33.83;;
69619;Laerm;57653;51.434;5.984;2023-04-03T00:41:56;32.78;31.83;33.65;;
69619;Laerm;57653;51.434;5.984;2023-04-03T00:42:06;33.07;31.81;35.01;;
69619;Laerm;57653;51.434;5.984;2023-04-03T00:42:17;32.93;31.90;33.98;;
69619;Laerm;57653;51.434;5.984;2023-04-03T00:42:27;34.55;32.13;38.52;;
69619;Laerm;57653;51.434;5.984;2023-04-03T00:42:38;38.67;33.34;44.18;;
69619;Laerm;57653;51.434;5.984;2023-04-03T00:42:50;35.32;32.88;40.25;;
69619;Laerm;57653;51.434;5.984;2023-04-03T00:43:01;35.33;32.93;38.43;;
69619;Laerm;57653;51.434;5.984;2023-04-03T00:43:14;36.80;32.18;41.24;;
69619;Laerm;57653;51.434;5.984;2023-04-03T00:43:25;33.41;32.19;34.72;;
69619;Laerm;57653;51.434;5.984;2023-04-03T00:43:36;33.46;32.05;35.18;;
69619;Laerm;57653;51.434;5.984;2023-04-03T00:43:46;32.98;31.82;34.98;;
69619;Laerm;57653;51.434;5.984;2023-04-03T00:43:57;32.74;31.83;33.87;;
69619;Laerm;57653;51.434;5.984;2023-04-03T00:45:21;32.77;31.53;33.74;;
69619;Laerm;57653;51.434;5.984;2023-04-03T00:45:34;32.77;31.87;33.76;;
69619;Laerm;57653;51.434;5.984;2023-04-03T00:45:46;32.85;31.86;35.80;;
69619;Laerm;57653;51.434;5.984;2023-04-03T00:45:57;32.75;31.36;33.85;;
69619;Laerm;57653;51.434;5.984;2023-04-03T00:46:08;32.76;31.80;33.91;;
69619;Laerm;57653;51.434;5.984;2023-04-03T00:46:18;32.72;31.67;33.65;;
69619;Laerm;57653;51.434;5.984;2023-04-03T00:46:28;32.70;31.69;33.65;;
69619;Laerm;57653;51.434;5.984;2023-04-03T00:46:39;32.75;31.89;33.79;;
69619;Laerm;57653;51.434;5.984;2023-04-03T00:46:49;32.78;31.82;33.84;;
69619;Laerm;57653;51.434;5.984;2023-04-03T00:47:00;32.75;31.75;33.66;;
69619;Laerm;57653;51.434;5.984;2023-04-03T00:47:12;32.73;31.41;33.87;;
69619;Laerm;57653;51.434;5.984;2023-04-03T00:47:23;32.71;31.74;33.77;;
69619;Laerm;57653;51.434;5.984;2023-04-03T00:47:34;32.72;31.63;33.82;;
69619;Laerm;57653;51.434;5.984;2023-04-03T00:47:45;32.72;31.50;33.64;;
69619;Laerm;57653;51.434;5.984;2023-04-03T00:47:55;32.81;31.67;35.59;;
69619;Laerm;57653;51.434;5.984;2023-04-03T00:48:07;32.75;31.57;34.90;;
69619;Laerm;57653;51.434;5.984;2023-04-03T00:48:20;32.96;31.74;36.47;;
69619;Laerm;57653;51.434;5.984;2023-04-03T00:48:34;32.84;31.56;35.09;;
69619;Laerm;57653;51.434;5.984;2023-04-03T00:48:46;33.04;31.62;37.52;;
69619;Laerm;57653;51.434;5.984;2023-04-03T00:48:57;32.73;31.52;33.74;;
69619;Laerm;57653;51.434;5.984;2023-04-03T00:49:07;32.89;31.75;35.18;;
69619;Laerm;57653;51.434;5.984;2023-04-03T00:49:18;33.19;31.71;37.51;;
69619;Laerm;57653;51.434;5.984;2023-04-03T00:49:28;32.74;31.60;33.84;;
69619;Laerm;57653;51.434;5.984;2023-04-03T00:49:38;32.75;31.61;34.09;;
69619;Laerm;57653;51.434;5.984;2023-04-03T00:49:50;32.90;31.53;37.47;;
69619;Laerm;57653;51.434;5.984;2023-04-03T00:50:01;32.76;31.75;33.66;;
69619;Laerm;57653;51.434;5.984;2023-04-03T00:50:12;32.87;31.69;34.07;;
69619;Laerm;57653;51.434;5.984;2023-04-03T00:50:22;32.80;31.27;33.82;;
69619;Laerm;57653;51.434;5.984;2023-04-03T00:50:34;32.76;31.82;33.55;;
69619;Laerm;57653;51.434;5.984;2023-04-03T00:50:45;32.77;31.69;33.87;;
69619;Laerm;57653;51.434;5.984;2023-04-03T00:50:56;32.90;31.88;33.89;;
69619;Laerm;57653;51.434;5.984;2023-04-03T00:51:08;32.78;31.62;33.80;;
69619;Laerm;57653;51.434;5.984;2023-04-03T00:51:20;32.72;31.69;33.68;;
69619;Laerm;57653;51.434;5.984;2023-04-03T00:51:33;32.76;31.71;33.68;;
69619;Laerm;57653;51.434;5.984;2023-04-03T00:51:43;32.81;31.83;33.70;;
69619;Laerm;57653;51.434;5.984;2023-04-03T00:51:54;32.78;31.80;33.83;;
69619;Laerm;57653;51.434;5.984;2023-04-03T00:52:06;32.74;31.75;33.57;;
69619;Laerm;57653;51.434;5.984;2023-04-03T00:52:17;32.77;31.76;33.91;;
69619;Laerm;57653;51.434;5.984;2023-04-03T00:52:29;32.77;31.58;33.77;;
69619;Laerm;57653;51.434;5.984;2023-04-03T00:52:40;32.78;31.77;33.79;;
69619;Laerm;57653;51.434;5.984;2023-04-03T00:52:50;32.72;31.73;33.47;;
69619;Laerm;57653;51.434;5.984;2023-04-03T00:53:01;32.78;31.76;34.12;;
69619;Laerm;57653;51.434;5.984;2023-04-03T00:53:13;32.83;31.83;34.83;;
69619;Laerm;57653;51.434;5.984;2023-04-03T00:53:25;33.37;32.15;34.37;;
69619;Laerm;57653;51.434;5.984;2023-04-03T00:53:39;33.20;32.07;34.85;;
69619;Laerm;57653;51.434;5.984;2023-04-03T00:53:52;35.34;32.49;39.48;;
69619;Laerm;57653;51.434;5.984;2023-04-03T00:54:05;43.03;36.58;50.90;;
69619;Laerm;57653;51.434;5.984;2023-04-03T00:54:16;63.75;48.80;69.38;;
69619;Laerm;57653;51.434;5.984;2023-04-03T00:54:27;69.05;65.97;73.30;;
69619;Laerm;57653;51.434;5.984;2023-04-03T00:54:37;65.02;56.08;68.96;;
69619;Laerm;57653;51.434;5.984;2023-04-03T00:54:49;51.29;43.94;58.16;;
69619;Laerm;57653;51.434;5.984;2023-04-03T00:55:02;42.15;36.53;49.65;;
69619;Laerm;57653;51.434;5.984;2023-04-03T00:55:13;36.36;33.69;38.97;;
69619;Laerm;57653;51.434;5.984;2023-04-03T00:55:24;35.87;34.00;38.57;;
69619;Laerm;57653;51.434;5.984;2023-04-03T00:55:35;35.61;33.54;37.76;;
69619;Laerm;57653;51.434;5.984;2023-04-03T00:55:46;34.76;33.35;37.13;;
69619;Laerm;57653;51.434;5.984;2023-04-03T00:55:57;34.68;32.99;37.94;;
69619;Laerm;57653;51.434;5.984;2023-04-03T00:56:09;34.31;32.84;35.79;;
69619;Laerm;57653;51.434;5.984;2023-04-03T00:56:21;33.58;32.34;35.07;;
69619;Laerm;57653;51.434;5.984;2023-04-03T00:56:33;33.81;31.70;38.89;;
69619;Laerm;57653;51.434;5.984;2023-04-03T00:56:45;33.41;32.09;37.64;;
69619;Laerm;57653;51.434;5.984;2023-04-03T00:56:56;33.08;31.79;36.77;;
69619;Laerm;57653;51.434;5.984;2023-04-03T00:57:07;32.93;31.85;33.94;;
69619;Laerm;57653;51.434;5.984;2023-04-03T00:57:18;32.97;32.01;33.87;;
69619;Laerm;57653;51.434;5.984;2023-04-03T00:57:29;33.40;31.85;37.29;;
69619;Laerm;57653;51.434;5.984;2023-04-03T00:57:40;32.87;31.80;34.03;;
69619;Laerm;57653;51.434;5.984;2023-04-03T00:57:51;32.80;31.97;33.76;;
69619;Laerm;57653;51.434;5.984;2023-04-03T00:58:02;32.76;31.83;33.61;;
69619;Laerm;57653;51.434;5.984;2023-04-03T00:58:12;32.88;31.84;35.66;;
69619;Laerm;57653;51.434;5.984;2023-04-03T00:58:26;33.11;31.72;38.38;;
69619;Laerm;57653;51.434;5.984;2023-04-03T00:58:43;33.37;31.81;39.77;;
69619;Laerm;57653;51.434;5.984;2023-04-03T00:58:55;33.41;31.79;38.51;;
69619;Laerm;57653;51.434;5.984;2023-04-03T00:59:15;32.76;31.79;33.77;;
69619;Laerm;57653;51.434;5.984;2023-04-03T00:59:30;33.08;31.86;39.35;;
69619;Laerm;57653;51.434;5.984;2023-04-03T00:59:43;33.07;31.86;37.64;;
69619;Laerm;57653;51.434;5.984;2023-04-03T00:59:55;33.28;32.01;37.51;;
69619;Laerm;57653;51.434;5.984;2023-04-03T01:00:09;33.00;31.92;34.83;;
69619;Laerm;57653;51.434;5.984;2023-04-03T01:00:21;33.31;31.74;38.65;;
69619;Laerm;57653;51.434;5.984;2023-04-03T01:00:32;32.80;31.71;33.73;;
69619;Laerm;57653;51.434;5.984;2023-04-03T01:00:46;32.95;31.82;36.17;;
69619;Laerm;57653;51.434;5.984;2023-04-03T01:00:58;32.79;31.81;33.96;;
69619;Laerm;57653;51.434;5.984;2023-04-03T01:01:10;32.86;31.78;34.49;;
69619;Laerm;57653;51.434;5.984;2023-04-03T01:01:23;33.06;31.99;36.25;;
69619;Laerm;57653;51.434;5.984;2023-04-03T01:01:33;33.20;32.12;34.02;;